X  Tanca Dades meteorològiques de l'aviació METAR     EIDW Dublin Airport
Temperatura
15°C Temperatura
7°C Rosada
59% Humitat



Vent
21 KM/H
13 MPH
6 M/S
11 NUS



200°
SSO
Condicions actuals

Llum Pluja Llum Pluja
Pressió 1011.92 (hPa) - 29.88 (inHg)
Visibilitat 6.2 (milla) - 10 (km)
Aeroport
Codi aeroport EIDW

Ubicació: Dublin Airport
Distància: 17 (km)

Metar:
EIDW 271700Z 20011KT 150V250 9999 -DZ FEW018 SCT032 BKN090 15/07 Q1012 NOSIG

Temps: 27-06-2022 18:00 IST